WetterOnline ( http://www.wetteronline.de )

Wetter aktuell Erfurt

Aktuelles Wetter: Eisenach (312m)

6-stündlich | Neueste Meldungen
Ortszeit Temperatur Wetter
Do, 25.05. 2:00 11.1° C bedeckt
Mi, 24.05. 20:00 16.1° C leicht bewölkt
Mi, 24.05. 14:00 16.2° C bedeckt
Mi, 24.05. 8:00 11.2° C bedeckt
Ortszeit Temperatur Wetter
Do, 25.05. 5:00 10.4° C bewölkt
Do, 25.05. 4:30 10.6° C bedeckt
Do, 25.05. 4:00 10.5° C bedeckt
Do, 25.05. 3:30 10.7° C bedeckt
Do, 25.05. 3:00 11.0° C bedeckt
Do, 25.05. 2:30 11.2° C bewölkt
Ortszeit Relative Feuchte Sichtweite
Do, 25.05. 2:00 85% 35 km
Mi, 24.05. 20:00 59% 35 km
Mi, 24.05. 14:00 50% 21 km
Mi, 24.05. 8:00 70% 55 km
Ortszeit Relative Feuchte Sichtweite
Do, 25.05. 5:00 89% 23 km
Do, 25.05. 4:30 88% 27 km
Do, 25.05. 4:00 87% 29 km
Do, 25.05. 3:30 85% 30 km
Do, 25.05. 3:00 84% 30 km
Do, 25.05. 2:30 84% 35 km
Ortszeit Niederschlagsmenge Niederschlagsart
Do, 25.05. 2:00 0,0 l/m2 in 6 Std. -
Mi, 24.05. 20:00 0,0 l/m2 in 12 Std. -
Mi, 24.05. 14:00 0,0 l/m2 in 6 Std. -
Mi, 24.05. 8:00 0,0 l/m2 in 12 Std. -
Ortszeit Niederschlagsmenge Niederschlagsart
Do, 25.05. 5:00 0,0 l/m2 in 1 Std. -
Do, 25.05. 4:30 keine Meldung -
Do, 25.05. 4:00 0,0 l/m2 in 1 Std. -
Do, 25.05. 3:30 keine Meldung -
Do, 25.05. 3:00 0,0 l/m2 in 1 Std. -
Do, 25.05. 2:30 keine Meldung -
Ortszeit Stärke Spitze Richtung
km/h Bft. km/h Grad Sektor
Do, 25.05. 2:00 7 2 18 270° W
Mi, 24.05. 20:00 9 2 39 320° NW
Mi, 24.05. 14:00 22 4 41 300° NW
Mi, 24.05. 8:00 9 2 30 290° W
Ortszeit Stärke Spitze Richtung
km/h Bft. km/h Grad Sektor
Do, 25.05. 5:00 4 1 11 290° W
Do, 25.05. 4:30 4 1 11 300° NW
Do, 25.05. 4:00 7 2 11 270° W
Do, 25.05. 3:30 7 2 9 280° W
Do, 25.05. 3:00 6 1 9 290° W
Do, 25.05. 2:30 4 1 7 310° NW
Ortszeit Untergrenze Bedeckung Gattung
total tief tief mittel hoch
Do, 25.05. 2:00 1080 m 8/8 8/8 - - -
Mi, 24.05. 20:00 1290 m 4/8 4/8 - - -
Mi, 24.05. 14:00 2100 m 8/8 8/8 - - -
Mi, 24.05. 8:00 3900 m 8/8 8/8 - - -
Ortszeit Bedeckungsgrad in Achtel und Wolkenuntergrenze
Do, 25.05. 5:00 6(750m) 7(1500m)
Do, 25.05. 4:30 6(750m) 7(960m) 8(1500m)
Do, 25.05. 4:00 5(750m) 7(930m) 8(1500m)
Do, 25.05. 3:30 1(750m) 3(1170m) 8(1500m)
Do, 25.05. 3:00 3(810m) 6(1140m) 8(1500m)
Do, 25.05. 2:30 6(930m) 7(1500m)
Ortszeit Luftdruck NN (hPa) Tendenz (hPa in 3 Std.)
Do, 25.05. 2:00 1023 0,0
Mi, 24.05. 20:00 1022 - 0,1
Mi, 24.05. 14:00 1022 - 0,4
Mi, 24.05. 8:00 1023 + 1,3
Ortszeit Luftdruck NN (hPa) Tendenz (hPa in 3 Std.)
Do, 25.05. 5:00 1023 - 0,3
Do, 25.05. 4:30 1023 - 0,4
Do, 25.05. 4:00 1023 - 0,5
Do, 25.05. 3:30 1023 - 0,2
Do, 25.05. 3:00 1023 0,0
Do, 25.05. 2:30 1023 - 0,1
Ortszeit Schneehöhe (cm)
Do, 25.05. 2:00 -
Mi, 24.05. 20:00 -
Mi, 24.05. 14:00 -
Mi, 24.05. 8:00 -
Ortszeit Schneehöhe (cm)
Do, 25.05. 5:00 -
Do, 25.05. 4:30 -
Do, 25.05. 4:00 -
Do, 25.05. 3:30 -
Do, 25.05. 3:00 -
Do, 25.05. 2:30 -
Link zu dieser Seite / Seite empfehlen

Das Wetter in ...